Latest Weather Observations for Trangie

IDN60801

Issued at 2:32 pm EDT Friday 27 March 2015 (issued every 30 minutes, with the page automatically refreshed every 10 minutes)

About weather observations | Map of weather stations | Latest weather observations for NSW | Other Formats
Station Details ID: 051049 Name: TRANGIE RESEARCH STATION AWS Lat: -31.99 Lon: 147.95 Height: 215.0 m
Data from the previous 72 hours. | See also: Recent months at Trangie
Date/Time
EDT
Temp
°C
App
Temp
°C
Dew
Point
Rel
Hum
%
Delta-T
°C
Wind Press
QNH
hPa
Press
MSL
hPa
Rain
since 9 am
mm
Dir
 
Spd
km/h
Gust
km/h
Spd
kts
Gust
kts
27/02:30pm 22.3 17.4 1.9 26 9.6 SSW 17 30 9 16 1022.3 1021.4 0.0
27/02:00pm 22.7 17.9 2.8 27 9.5 SSW 17 26 9 14 1022.8 1021.9 0.0
27/01:30pm 20.9 15.7 2.7 30 8.6 SW 19 26 10 14 1023.5 1022.6 0.0
27/01:00pm 20.7 15.3 2.5 30 8.5 S 20 32 11 17 1023.9 1023.0 0.0
27/12:30pm 20.2 14.8 2.5 31 8.3 SSW 20 30 11 16 1024.5 1023.6 0.0
27/12:00pm 19.6 13.4 2.0 31 8.1 SW 24 44 13 24 1025.0 1024.1 0.0
27/11:30am 18.8 13.0 2.2 33 7.7 SSW 22 32 12 17 1025.3 1024.4 0.0
27/11:00am 18.0 12.2 2.3 35 7.2 SSW 22 33 12 18 1025.4 1024.5 0.0
27/10:30am 17.0 11.8 2.6 38 6.6 SSW 19 28 10 15 1025.6 1024.7 0.0
27/10:00am 15.8 11.0 2.6 41 6.0 S 17 26 9 14 1025.5 1024.6 0.0
27/09:30am 14.8 9.6 2.4 43 5.6 S 19 28 10 15 1025.5 1024.6 0.0
27/09:00am 13.1 8.5 1.5 45 5.0 S 15 24 8 13 1025.3 1024.4 0.0
27/08:30am 11.3 7.3 0.7 48 4.4 SSW 11 15 6 8 1025.1 1024.2 0.0
27/08:00am 7.0 3.9 1.1 66 2.4 SSW 7 9 4 5 1024.8 1023.9 0.0
27/07:30am 5.8 2.1 0.2 67 2.2 SW 9 9 5 5 1024.6 1023.7 0.0
27/07:00am 6.4 2.7 -0.1 63 2.5 SW 9 11 5 6 1024.4 1023.5 0.0
27/06:30am 6.2 3.0 -0.3 63 2.5 SW 6 7 3 4 1024.0 1023.1 0.0
27/06:00am 6.4 4.4 -0.1 63 2.5 CALM 0 0 0 0 1023.8 1022.9 0.0
27/05:30am 6.8 4.8 -0.2 61 2.7 CALM 0 0 0 0 1023.6 1022.7 0.0
27/05:00am 7.0 4.9 -0.7 58 3.0 CALM 0 0 0 0 1023.6 1022.7 0.0
27/04:30am 7.9 5.9 -0.1 57 3.2 CALM 0 0 0 0 1023.5 1022.6 0.0
27/04:00am 8.4 6.0 -0.6 53 3.5 SSW 2 6 1 3 1023.5 1022.6 0.0
27/03:30am 9.0 7.0 -0.3 52 3.7 CALM 0 0 0 0 1023.5 1022.6 0.0
27/03:00am 10.2 6.9 -0.9 46 4.4 S 6 7 3 4 1023.7 1022.8 0.0
27/02:30am 11.1 7.3 -0.7 44 4.8 S 9 13 5 7 1023.8 1022.9 0.0
27/02:00am 11.3 7.5 -0.8 43 4.9 S 9 13 5 7 1024.0 1023.1 0.0
27/01:30am 12.4 8.2 -0.8 40 5.4 S 11 13 6 7 1024.3 1023.4 0.0
27/01:00am 12.4 8.3 -0.5 41 5.3 S 11 15 6 8 1024.3 1023.4 0.0
27/12:30am 12.6 8.8 -0.6 40 5.4 S 9 13 5 7 1023.9 1023.0 0.0
27/12:00am 13.5 8.9 -0.9 37 5.9 SSW 13 17 7 9 1023.9 1023.0 0.0
 
Date/Time
EDT
Temp
°C
App
Temp
°C
Dew
Point
Rel
Hum
%
Delta-T
°C
Wind Press
QNH
hPa
Press
MSL
hPa
Rain
since 9 am
mm
Dir
 
Spd
km/h
Gust
km/h
Spd
kts
Gust
kts
26/11:30pm 13.9 9.7 -0.9 36 6.1 SSW 11 15 6 8 1023.9 1023.0 0.0
26/11:00pm 14.9 10.3 -0.8 34 6.6 SSW 13 17 7 9 1023.9 1023.0 0.0
26/10:30pm 15.8 10.9 -0.8 32 7.0 SSW 15 19 8 10 1023.8 1022.9 0.0
26/10:00pm 16.4 11.6 0.1 33 7.0 SSW 15 20 8 11 1023.4 1022.5 0.0
26/09:30pm 17.3 11.8 0.9 33 7.3 SSW 19 24 10 13 1023.1 1022.2 0.0
26/09:00pm 18.0 13.2 2.7 36 7.1 SSW 17 22 9 12 1022.7 1021.8 0.0
26/08:30pm 18.8 14.5 3.0 35 7.4 SSW 15 19 8 10 1022.2 1021.3 0.0
26/08:00pm 19.5 14.9 3.6 35 7.6 SSW 17 24 9 13 1021.6 1020.7 0.0
26/07:30pm 20.2 15.6 3.9 34 7.9 SSW 17 24 9 13 1021.2 1020.3 0.0
26/07:00pm 21.4 15.9 4.0 32 8.5 SW 22 28 12 15 1020.7 1019.8 0.0
26/06:30pm 22.4 16.1 4.0 30 9.0 SSW 26 37 14 20 1020.4 1019.5 0.0
26/06:00pm 23.3 15.9 3.8 28 9.6 SW 32 43 17 23 1020.0 1019.1 0.0
26/05:30pm 24.2 17.9 3.5 26 10.2 SW 26 33 14 18 1019.9 1019.0 0.0
26/05:00pm 24.5 18.5 3.2 25 10.4 SW 24 37 13 20 1019.8 1018.9 0.0
26/04:30pm 24.8 18.7 2.9 24 10.7 SW 24 35 13 19 1019.8 1018.9 0.0
26/04:00pm 25.4 18.4 2.2 22 11.2 SW 28 41 15 22 1019.8 1018.9 0.0
26/03:30pm 24.6 18.8 2.1 23 10.8 SW 22 35 12 19 1020.0 1019.1 0.0
26/03:00pm 24.9 19.5 2.4 23 10.9 SW 20 32 11 17 1020.1 1019.2 0.0
26/02:30pm 24.7 19.4 2.8 24 10.7 WSW 20 33 11 18 1020.4 1019.5 0.0
26/02:00pm 24.1 18.9 2.3 24 10.5 SW 19 33 10 18 1020.7 1019.8 0.0
26/01:30pm 24.1 19.0 2.9 25 10.3 WSW 19 28 10 15 1020.9 1020.0 0.0
26/01:00pm 22.9 17.5 2.4 26 9.8 SW 20 33 11 18 1021.4 1020.5 0.0
26/12:30pm 22.4 17.0 2.5 27 9.5 SSW 20 32 11 17 1021.5 1020.6 0.0
26/12:00pm 22.0 16.6 2.7 28 9.2 SSW 20 33 11 18 1021.9 1021.0 0.0
26/11:30am 21.1 15.8 2.9 30 8.7 SSW 20 32 11 17 1021.9 1021.0 0.0
26/11:00am 20.6 14.9 2.9 31 8.4 SSW 22 33 12 18 1022.0 1021.1 0.0
26/10:30am 20.2 15.5 3.0 32 8.2 SSW 17 32 9 17 1021.9 1021.0 0.0
26/10:00am 18.7 14.2 2.1 33 7.6 S 15 22 8 12 1021.6 1020.7 0.0
26/09:30am 17.7 13.5 3.9 40 6.5 SSW 15 20 8 11 1021.4 1020.5 0.0
26/09:00am 16.5 13.2 4.5 45 5.7 S 11 17 6 9 1021.2 1020.3 0.0
26/08:30am 14.3 11.6 5.7 56 4.1 S 9 13 5 7 1020.8 1019.9 0.0
26/08:00am 10.2 9.1 5.0 70 2.4 CALM 0 7 0 4 1020.5 1019.6 0.0
26/07:30am 9.2 7.9 4.2 71 2.2 CALM 0 0 0 0 1020.2 1019.3 0.0
26/07:00am 9.4 7.1 4.8 73 2.1 SSW 6 7 3 4 1020.0 1019.1 0.0
26/06:30am 9.1 6.2 4.7 74 2.0 SSW 9 9 5 5 1019.7 1018.8 0.0
26/06:00am 9.3 6.7 4.3 71 2.2 SW 7 7 4 4 1019.4 1018.5 0.0
26/05:30am 10.2 7.6 4.1 66 2.7 SSW 7 9 4 5 1019.0 1018.1 0.0
26/05:00am 11.6 8.9 3.9 59 3.5 SSW 7 9 4 5 1018.8 1017.8 0.0
26/04:30am 12.1 9.4 3.9 57 3.7 SSW 7 9 4 5 1018.8 1017.8 0.0
26/04:00am 12.5 9.8 3.7 55 4.0 SSW 7 9 4 5 1018.8 1017.8 0.0
26/03:30am 12.6 9.9 3.5 54 4.1 S 7 11 4 6 1018.7 1017.7 0.0
26/03:00am 13.4 10.2 3.2 50 4.6 S 9 11 5 6 1018.7 1017.7 0.0
26/02:30am 13.3 10.5 3.4 51 4.5 S 7 9 4 5 1018.7 1017.7 0.0
26/02:00am 13.7 10.6 3.5 50 4.6 S 9 11 5 6 1018.7 1017.7 0.0
26/01:30am 12.6 9.6 4.1 56 3.9 SSW 9 11 5 6 1018.6 1017.6 0.0
26/01:00am 12.6 9.6 4.1 56 3.9 SSW 9 11 5 6 1018.3 1017.3 0.0
26/12:30am 12.9 10.3 3.3 52 4.3 SW 6 9 3 5 1018.3 1017.3 0.0
26/12:00am 13.4 12.0 3.8 52 4.4 CALM 0 0 0 0 1018.2 1017.2 0.0
 
Date/Time
EDT
Temp
°C
App
Temp
°C
Dew
Point
Rel
Hum
%
Delta-T
°C
Wind Press
QNH
hPa
Press
MSL
hPa
Rain
since 9 am
mm
Dir
 
Spd
km/h
Gust
km/h
Spd
kts
Gust
kts
25/11:30pm 13.8 12.6 4.7 54 4.3 CALM 0 0 0 0 1018.0 1017.1 0.0
25/11:00pm 14.5 12.9 2.4 44 5.4 CALM 0 0 0 0 1018.0 1017.1 0.0
25/10:30pm 15.1 13.6 3.0 44 5.5 CALM 0 0 0 0 1018.0 1017.1 0.0
25/10:00pm 16.1 14.3 1.4 37 6.5 CALM 0 0 0 0 1018.2 1017.2 0.0
25/09:30pm 17.3 15.0 0.5 32 7.4 NW 2 6 1 3 1017.9 1017.0 0.0
25/09:00pm 16.9 13.8 0.1 32 7.3 NW 6 6 3 3 1017.6 1016.7 0.0
25/08:30pm 17.0 14.4 1.0 34 7.1 WNW 4 6 2 3 1017.2 1016.3 0.0
25/08:00pm 18.4 14.9 1.4 32 7.7 W 9 11 5 6 1016.9 1016.0 0.0
25/07:30pm 20.0 16.5 1.0 28 8.7 W 9 11 5 6 1016.6 1015.7 0.0
25/07:00pm 22.7 18.7 0.5 23 10.2 W 11 13 6 7 1016.3 1015.4 0.0
25/06:30pm 24.1 20.0 -0.2 20 11.2 W 11 17 6 9 1016.0 1015.1 0.0
25/06:00pm 24.6 20.6 0.2 20 11.3 WSW 11 20 6 11 1015.9 1015.0 0.0
25/05:30pm 25.3 21.6 0.0 19 11.8 WSW 9 11 5 6 1015.7 1014.8 0.0
25/05:00pm 25.0 21.8 0.5 20 11.5 WSW 7 13 4 7 1015.7 1014.8 0.0
25/04:30pm 24.9 21.3 0.4 20 11.5 SSW 9 20 5 11 1015.8 1014.9 0.0
25/04:00pm 25.1 20.8 1.3 21 11.3 W 13 22 7 12 1015.9 1015.0 0.0
25/03:30pm 24.9 20.7 1.7 22 11.1 WSW 13 22 7 12 1016.1 1015.2 0.0
25/03:00pm 24.1 20.5 2.9 25 10.3 W 11 20 6 11 1016.3 1015.4 0.0
25/02:30pm 23.6 19.5 2.4 25 10.2 S 13 20 7 11 1016.5 1015.6 0.0
25/02:00pm 23.7 19.7 3.1 26 10.0 WNW 13 24 7 13 1016.6 1015.7 0.0
25/01:30pm 22.8 20.0 3.4 28 9.5 WSW 7 15 4 8 1017.0 1016.1 0.0
25/01:00pm 22.3 17.6 2.9 28 9.3 WSW 17 24 9 13 1017.3 1016.4 0.0
25/12:30pm 21.2 18.2 4.3 33 8.3 SSE 9 15 5 8 1017.6 1016.7 0.0
25/12:00pm 20.7 17.7 3.9 33 8.1 SSW 9 17 5 9 1018.2 1017.2 0.0
25/11:30am 20.2 17.3 4.7 36 7.6 SE 9 15 5 8 1018.2 1017.2 0.0
25/11:00am 19.7 17.2 6.4 42 6.7 S 9 19 5 10 1018.5 1017.5 0.0
25/10:30am 18.2 14.5 6.4 46 5.9 S 15 20 8 11 1018.7 1017.7 0.0
25/10:00am 17.0 13.8 6.8 51 5.1 S 13 20 7 11 1018.8 1017.8 0.0
25/09:30am 16.1 13.6 6.5 53 4.7 SSE 9 17 5 9 1018.7 1017.7 0.0
25/09:00am 14.1 11.2 6.5 60 3.7 S 11 15 6 8 1018.6 1017.6 4.8
25/08:30am 12.8 9.8 6.2 64 3.2 S 11 15 6 8 1018.2 1017.2 4.8
25/08:00am 11.2 8.6 6.1 71 2.4 SSW 9 13 5 7 1017.7 1016.8 4.8
25/07:30am 9.9 7.2 5.7 75 1.9 SSW 9 13 5 7 1017.4 1016.5 4.8
25/07:00am 9.9 6.8 5.5 74 2.0 SSW 11 13 6 7 1017.1 1016.2 4.8
25/06:30am 10.0 7.3 5.4 73 2.1 SSW 9 11 5 6 1016.7 1015.8 4.8
25/06:00am 10.4 7.7 5.4 71 2.3 SSW 9 11 5 6 1016.4 1015.5 4.8
25/05:30am 10.9 8.2 5.4 69 2.6 S 9 13 5 7 1016.0 1015.1 4.8
25/05:00am 11.3 8.2 5.6 68 2.7 SSW 11 15 6 8 1015.9 1015.0 4.8
25/04:30am 11.7 9.0 5.8 67 2.8 SSW 9 13 5 7 1015.9 1015.0 4.8
25/04:00am 12.0 9.3 5.6 65 3.0 SSW 9 11 5 6 1015.9 1015.0 4.8
25/03:30am 12.7 9.2 5.6 62 3.4 SSW 13 15 7 8 1016.0 1015.1 4.8
25/03:00am 13.3 10.3 6.2 62 3.4 SSW 11 13 6 7 1016.1 1015.2 4.8
25/02:30am 13.5 11.3 6.1 61 3.6 SSW 7 11 4 6 1016.4 1015.5 4.8
25/02:00am 14.1 11.1 6.2 59 3.8 SSW 11 15 6 8 1016.5 1015.6 4.8
25/01:30am 14.7 11.8 6.3 57 4.1 SSW 11 15 6 8 1016.5 1015.6 4.8
25/01:00am 15.3 12.0 6.6 56 4.3 SSW 13 17 7 9 1016.5 1015.6 4.8
25/12:30am 15.5 12.7 6.8 56 4.3 SSW 11 15 6 8 1016.5 1015.6 4.8
25/12:00am 16.0 13.1 6.7 54 4.6 SSW 11 15 6 8 1016.5 1015.6 4.8
 
Date/Time
EDT
Temp
°C
App
Temp
°C
Dew
Point
Rel
Hum
%
Delta-T
°C
Wind Press
QNH
hPa
Press
MSL
hPa
Rain
since 9 am
mm
Dir
 
Spd
km/h
Gust
km/h
Spd
kts
Gust
kts
24/11:30pm 16.7 13.5 6.8 52 4.9 SSW 13 17 7 9 1016.4 1015.5 4.8
24/11:00pm 17.4 13.9 7.2 51 5.2 SSW 15 20 8 11 1016.4 1015.5 4.8
24/10:30pm 17.7 15.0 8.8 56 4.7 SSW 13 17 7 9 1016.0 1015.1 4.8
24/10:00pm 18.1 15.9 9.2 56 4.7 SSW 11 13 6 7 1016.0 1015.1 4.8
24/09:30pm 18.7 16.4 8.9 53 5.2 S 11 15 6 8 1015.7 1014.8 4.8
24/09:00pm 19.4 16.7 9.0 51 5.5 SSW 13 17 7 9 1015.3 1014.4 4.8
24/08:30pm 19.9 16.7 8.6 48 6.0 SSW 15 19 8 10 1014.9 1014.0 4.8
24/08:00pm 20.9 16.4 8.5 45 6.6 SSW 22 33 12 18 1014.5 1013.5 4.8
24/07:30pm 22.0 16.6 8.2 41 7.3 SSW 26 39 14 21 1013.7 1012.7 4.8
24/07:00pm 23.8 17.8 8.6 38 8.2 SSW 30 43 16 23 1012.8 1011.9 4.8
24/06:30pm 25.7 19.8 9.1 35 9.1 SSW 30 43 16 23 1012.0 1011.1 4.8
24/06:00pm 26.6 21.3 9.9 35 9.4 SSW 28 39 15 21 1011.5 1010.6 4.8
24/05:30pm 27.4 22.7 10.6 35 9.6 SSW 26 35 14 19 1011.0 1010.1 4.8
24/05:00pm 27.6 23.7 12.0 38 9.1 SSW 24 35 13 19 1010.9 1010.0 4.8
24/04:30pm 26.8 22.9 13.2 43 8.1 SSW 26 41 14 22 1011.1 1010.2 4.8
24/04:00pm 26.9 21.9 13.3 43 8.1 SSW 32 46 17 25 1011.1 1010.2 4.8
24/03:30pm 26.9 22.2 14.3 46 7.6 SSW 32 44 17 24 1011.1 1010.2 4.8
24/03:00pm 26.3 22.2 15.0 49 6.9 SSW 30 43 16 23 1011.1 1010.2 4.8

Other Formats:

Comma delimited format used in spreadsheet applications
http://www.bom.gov.au/fwo/IDN60801/IDN60801.95710.axf

JavaScript Object Notation format (JSON) in row-major order
http://www.bom.gov.au/fwo/IDN60801/IDN60801.95710.json